createdAt,value
2022-09-10T00:00:19.714Z,14.75
2022-09-10T00:00:54.482Z,14.75
2022-09-10T00:01:30.515Z,14.75
2022-09-10T00:02:03.052Z,14.75
2022-09-10T00:02:36.324Z,14.75
2022-09-10T00:03:10.784Z,14.75
2022-09-10T00:03:43.668Z,14.75
2022-09-10T00:04:16.809Z,14.75
2022-09-10T00:04:50.426Z,14.75
2022-09-10T00:05:22.900Z,14.75
2022-09-10T00:05:55.481Z,14.75
2022-09-10T00:06:33.054Z,14.75
2022-09-10T00:07:05.544Z,14.75
2022-09-10T00:07:38.141Z,14.75
2022-09-10T00:08:11.238Z,14.75
2022-09-10T00:08:44.662Z,14.75
2022-09-10T00:09:19.576Z,14.75
2022-09-10T00:09:52.176Z,14.75
2022-09-10T00:10:27.096Z,14.75
2022-09-10T00:11:05.618Z,14.81
2022-09-10T00:11:41.084Z,14.81
2022-09-10T00:12:15.026Z,14.75
2022-09-10T00:12:48.310Z,14.75
2022-09-10T00:13:22.720Z,14.75
2022-09-10T00:13:57.298Z,14.75
2022-09-10T00:14:29.786Z,14.75
2022-09-10T00:15:02.684Z,14.75
2022-09-10T00:15:40.665Z,14.75
2022-09-10T00:16:15.295Z,14.75
2022-09-10T00:16:49.040Z,14.75
2022-09-10T00:17:21.539Z,14.75
2022-09-10T00:17:53.995Z,14.75
2022-09-10T00:18:26.510Z,14.75
2022-09-10T00:19:01.445Z,14.75
2022-09-10T00:19:33.925Z,14.75
2022-09-10T00:20:09.144Z,14.75
2022-09-10T00:20:44.644Z,14.75
2022-09-10T00:21:20.649Z,14.75
2022-09-10T00:21:54.468Z,14.75
2022-09-10T00:22:28.090Z,14.75
2022-09-10T00:23:02.676Z,14.75
2022-09-10T00:23:35.339Z,14.69
2022-09-10T00:24:09.132Z,14.75
2022-09-10T00:24:44.549Z,14.75
2022-09-10T00:25:17.496Z,14.69
2022-09-10T00:25:52.108Z,14.69
2022-09-10T00:26:27.198Z,14.69
2022-09-10T00:26:59.730Z,14.69
2022-09-10T00:27:33.824Z,14.69
2022-09-10T00:28:08.440Z,14.69
2022-09-10T00:28:42.108Z,14.69
2022-09-10T00:29:15.875Z,14.69
2022-09-10T00:29:52.049Z,14.69
2022-09-10T00:30:27.349Z,14.69
2022-09-10T00:31:00.066Z,14.69
2022-09-10T00:31:33.397Z,14.69
2022-09-10T00:32:07.444Z,14.69
2022-09-10T00:32:39.924Z,14.69
2022-09-10T00:33:12.599Z,14.63
2022-09-10T00:33:46.065Z,14.63
2022-09-10T00:34:18.548Z,14.63
2022-09-10T00:34:50.979Z,14.63
2022-09-10T00:35:23.836Z,14.63
2022-09-10T00:35:57.756Z,14.63
2022-09-10T00:36:33.023Z,14.63
2022-09-10T00:37:07.861Z,14.63
2022-09-10T00:37:40.717Z,14.63
2022-09-10T00:38:14.583Z,14.63
2022-09-10T00:38:47.178Z,14.63
2022-09-10T00:39:21.334Z,14.63
2022-09-10T00:39:55.444Z,14.63
2022-09-10T00:40:28.507Z,14.63
2022-09-10T00:41:06.814Z,14.63
2022-09-10T00:41:41.662Z,14.63
2022-09-10T00:42:14.124Z,14.63
2022-09-10T00:42:47.662Z,14.63
2022-09-10T00:43:21.995Z,14.63
2022-09-10T00:43:56.539Z,14.63
2022-09-10T00:45:01.415Z,14.63
2022-09-10T00:45:34.249Z,14.63
2022-09-10T00:46:06.889Z,14.63
2022-09-10T00:46:44.460Z,14.63
2022-09-10T00:47:22.335Z,14.63
2022-09-10T00:47:59.280Z,14.63
2022-09-10T00:48:32.365Z,14.63
2022-09-10T00:49:11.953Z,14.63
2022-09-10T00:49:48.189Z,14.63
2022-09-10T00:50:25.662Z,14.63
2022-09-10T00:51:01.331Z,14.63
2022-09-10T00:51:36.414Z,14.63
2022-09-10T00:52:12.471Z,14.63
2022-09-10T00:52:47.416Z,14.63
2022-09-10T00:53:23.138Z,14.63
2022-09-10T00:53:59.299Z,14.63
2022-09-10T00:54:33.725Z,14.63
2022-09-10T00:55:07.576Z,14.63
2022-09-10T00:55:44.668Z,14.63
2022-09-10T00:56:17.593Z,14.63
2022-09-10T00:56:52.018Z,14.63
2022-09-10T00:57:27.972Z,14.63
2022-09-10T00:58:02.635Z,14.63
2022-09-10T00:58:35.361Z,14.63
2022-09-10T00:59:10.914Z,14.63
2022-09-10T00:59:49.775Z,14.63
2022-09-10T01:00:23.007Z,14.63
2022-09-10T01:00:58.927Z,14.63
2022-09-10T01:01:33.761Z,14.63
2022-09-10T01:02:06.405Z,14.63
2022-09-10T01:02:39.045Z,14.63
2022-09-10T01:03:15.900Z,14.63
2022-09-10T01:03:49.670Z,14.63
2022-09-10T01:04:23.467Z,14.63
2022-09-10T01:04:58.146Z,14.63
2022-09-10T01:05:30.776Z,14.63
2022-09-10T01:06:05.124Z,14.63
2022-09-10T01:06:39.042Z,14.63
2022-09-10T01:07:15.650Z,14.63
2022-09-10T01:07:49.329Z,14.63
2022-09-10T01:08:21.809Z,14.63
2022-09-10T01:08:54.350Z,14.63
2022-09-10T01:09:28.387Z,14.63
2022-09-10T01:10:04.433Z,14.63
2022-09-10T01:10:45.979Z,14.63
2022-09-10T01:11:34.849Z,14.63
2022-09-10T01:12:21.979Z,14.63
2022-09-10T01:13:12.096Z,14.63
2022-09-10T01:14:00.428Z,14.63
2022-09-10T01:14:54.532Z,14.69
2022-09-10T01:15:35.507Z,14.69
2022-09-10T01:16:19.777Z,14.69
2022-09-10T01:17:03.443Z,14.69
2022-09-10T01:17:45.047Z,14.69
2022-09-10T01:18:32.126Z,14.69
2022-09-10T01:19:19.337Z,14.69
2022-09-10T01:20:28.522Z,14.69
2022-09-10T01:21:08.680Z,14.69
2022-09-10T01:21:52.442Z,14.69
2022-09-10T01:22:34.546Z,14.69
2022-09-10T01:23:37.632Z,14.69
2022-09-10T01:24:45.025Z,14.69
2022-09-10T01:25:29.332Z,14.69
2022-09-10T01:26:12.967Z,14.69
2022-09-10T01:27:14.271Z,14.69
2022-09-10T01:27:50.704Z,14.69
2022-09-10T01:28:31.577Z,14.69
2022-09-10T01:29:09.825Z,14.69
2022-09-10T01:29:49.283Z,14.69
2022-09-10T01:30:27.534Z,14.69
2022-09-10T01:31:11.430Z,14.69
2022-09-10T01:31:49.800Z,14.75
2022-09-10T01:32:28.778Z,14.75
2022-09-10T01:33:10.394Z,14.75
2022-09-10T01:33:53.903Z,14.75
2022-09-10T01:34:31.439Z,14.75
2022-09-10T01:35:14.531Z,14.75
2022-09-10T01:35:52.059Z,14.75
2022-09-10T01:36:28.340Z,14.75
2022-09-10T01:37:07.916Z,14.75
2022-09-10T01:37:43.727Z,14.75
2022-09-10T01:38:20.899Z,14.75
2022-09-10T01:38:55.524Z,14.75
2022-09-10T01:39:29.325Z,14.75
2022-09-10T01:40:05.310Z,14.75
2022-09-10T01:40:41.395Z,14.75
2022-09-10T01:41:16.594Z,14.75
2022-09-10T01:41:49.815Z,14.75
2022-09-10T01:42:25.746Z,14.75
2022-09-10T01:43:04.693Z,14.75
2022-09-10T01:43:37.897Z,14.75
2022-09-10T01:44:11.582Z,14.75
2022-09-10T01:44:51.088Z,14.75
2022-09-10T01:45:36.883Z,14.75
2022-09-10T01:46:21.780Z,14.75
2022-09-10T01:47:03.385Z,14.75
2022-09-10T01:48:08.712Z,14.69
2022-09-10T01:49:18.815Z,14.69
2022-09-10T01:50:31.666Z,14.69
2022-09-10T01:51:12.618Z,14.69
2022-09-10T01:52:03.720Z,14.69
2022-09-10T01:52:45.669Z,14.69
2022-09-10T01:53:39.318Z,14.63
2022-09-10T01:54:30.853Z,14.63
2022-09-10T01:55:17.227Z,14.63
2022-09-10T01:55:58.800Z,14.63
2022-09-10T01:56:39.378Z,14.63
2022-09-10T01:57:23.310Z,14.63
2022-09-10T01:58:04.665Z,14.63
2022-09-10T01:58:46.330Z,14.56
2022-09-10T01:59:31.275Z,14.56
2022-09-10T02:00:07.688Z,14.56
2022-09-10T02:00:51.322Z,14.56
2022-09-10T02:01:29.344Z,14.56
2022-09-10T02:02:07.652Z,14.56
2022-09-10T02:02:45.347Z,14.56
2022-09-10T02:03:20.658Z,14.56
2022-09-10T02:03:59.047Z,14.56
2022-09-10T02:04:33.615Z,14.56
2022-09-10T02:05:08.843Z,14.50
2022-09-10T02:05:44.284Z,14.50
2022-09-10T02:06:20.100Z,14.50
2022-09-10T02:06:55.057Z,14.50
2022-09-10T02:07:29.166Z,14.50
2022-09-10T02:08:08.111Z,14.50
2022-09-10T02:08:43.398Z,14.50
2022-09-10T02:09:16.603Z,14.50
2022-09-10T02:09:50.950Z,14.50
2022-09-10T02:10:23.669Z,14.44
2022-09-10T02:10:59.214Z,14.44
2022-09-10T02:11:47.352Z,14.44
2022-09-10T02:12:28.787Z,14.44
2022-09-10T02:13:12.324Z,14.44
2022-09-10T02:13:55.575Z,14.44
2022-09-10T02:14:49.349Z,14.44
2022-09-10T02:15:28.668Z,14.44
2022-09-10T02:16:15.962Z,14.44
2022-09-10T02:16:54.233Z,14.44
2022-09-10T02:17:31.649Z,14.44
2022-09-10T02:18:06.663Z,14.44
2022-09-10T02:18:40.054Z,14.38
2022-09-10T02:19:14.426Z,14.38
2022-09-10T02:19:51.532Z,14.38
2022-09-10T02:20:24.149Z,14.44
2022-09-10T02:20:59.705Z,14.44
2022-09-10T02:21:34.501Z,14.44
2022-09-10T02:22:08.444Z,14.44
2022-09-10T02:22:46.703Z,14.44
2022-09-10T02:23:23.444Z,14.44
2022-09-10T02:24:02.118Z,14.44
2022-09-10T02:24:36.320Z,14.44
2022-09-10T02:25:09.977Z,14.44
2022-09-10T02:25:44.199Z,14.44
2022-09-10T02:26:17.800Z,14.44
2022-09-10T02:26:51.078Z,14.44
2022-09-10T02:27:23.707Z,14.44
2022-09-10T02:27:58.065Z,14.44
2022-09-10T02:28:32.519Z,14.44
2022-09-10T02:29:06.188Z,14.44
2022-09-10T02:29:40.689Z,14.44
2022-09-10T02:30:13.692Z,14.44
2022-09-10T02:30:48.265Z,14.44
2022-09-10T02:31:22.437Z,14.44
2022-09-10T02:31:55.210Z,14.44
2022-09-10T02:32:28.741Z,14.44
2022-09-10T02:33:02.209Z,14.44
2022-09-10T02:33:35.915Z,14.44
2022-09-10T02:34:08.580Z,14.44
2022-09-10T02:34:41.151Z,14.44
2022-09-10T02:35:15.597Z,14.44
2022-09-10T02:35:52.050Z,14.44
2022-09-10T02:36:26.116Z,14.44
2022-09-10T02:37:00.638Z,14.44
2022-09-10T02:37:33.143Z,14.44
2022-09-10T02:38:05.947Z,14.44
2022-09-10T02:38:40.506Z,14.44
2022-09-10T02:39:14.185Z,14.44
2022-09-10T02:39:47.855Z,14.44
2022-09-10T02:40:20.415Z,14.44
2022-09-10T02:40:52.917Z,14.38
2022-09-10T02:41:27.573Z,14.38
2022-09-10T02:42:01.893Z,14.38
2022-09-10T02:42:35.581Z,14.38
2022-09-10T02:43:09.071Z,14.38
2022-09-10T02:43:42.920Z,14.38
2022-09-10T02:44:15.511Z,14.38
2022-09-10T02:44:49.788Z,14.38
2022-09-10T02:45:22.942Z,14.38
2022-09-10T02:45:57.171Z,14.38
2022-09-10T02:46:31.229Z,14.38
2022-09-10T02:47:04.427Z,14.38
2022-09-10T02:47:36.914Z,14.31
2022-09-10T02:48:10.311Z,14.31
2022-09-10T02:48:42.833Z,14.31
2022-09-10T02:49:15.293Z,14.31
2022-09-10T02:49:49.166Z,14.31
2022-09-10T02:50:21.655Z,14.31
2022-09-10T02:50:54.445Z,14.31
2022-09-10T02:51:27.903Z,14.31
2022-09-10T02:52:02.742Z,14.31
2022-09-10T02:52:35.637Z,14.31
2022-09-10T02:53:09.106Z,14.31
2022-09-10T02:53:42.057Z,14.31
2022-09-10T02:54:14.517Z,14.31
2022-09-10T02:54:50.346Z,14.31
2022-09-10T02:55:22.745Z,14.31
2022-09-10T02:55:55.319Z,14.31
2022-09-10T02:56:28.787Z,14.38
2022-09-10T02:57:03.442Z,14.31
2022-09-10T02:57:35.871Z,14.38
2022-09-10T02:58:09.485Z,14.38
2022-09-10T02:58:43.526Z,14.38
2022-09-10T02:59:16.767Z,14.38
2022-09-10T02:59:50.179Z,14.38
2022-09-10T03:00:22.685Z,14.38
2022-09-10T03:01:06.517Z,14.38
2022-09-10T03:01:40.237Z,14.38
2022-09-10T03:02:14.410Z,14.31
2022-09-10T03:02:47.964Z,14.31
2022-09-10T03:03:20.418Z,14.31
2022-09-10T03:03:56.866Z,14.31
2022-09-10T03:04:29.345Z,14.31
2022-09-10T03:05:01.841Z,14.31
2022-09-10T03:05:35.464Z,14.31
2022-09-10T03:06:08.446Z,14.31
2022-09-10T03:06:41.156Z,14.31
2022-09-10T03:07:17.089Z,14.31
2022-09-10T03:07:50.342Z,14.31
2022-09-10T03:08:22.798Z,14.31
2022-09-10T03:08:57.549Z,14.31
2022-09-10T03:09:31.478Z,14.31
2022-09-10T03:10:04.428Z,14.31
2022-09-10T03:10:39.488Z,14.31
2022-09-10T03:11:13.715Z,14.31
2022-09-10T03:11:46.531Z,14.31
2022-09-10T03:12:21.573Z,14.31
2022-09-10T03:12:54.356Z,14.31
2022-09-10T03:13:27.659Z,14.31
2022-09-10T03:14:04.083Z,14.31
2022-09-10T03:14:37.165Z,14.38
2022-09-10T03:15:10.647Z,14.38
2022-09-10T03:15:44.115Z,14.38
2022-09-10T03:16:19.239Z,14.38
2022-09-10T03:16:52.139Z,14.38
2022-09-10T03:17:25.703Z,14.38
2022-09-10T03:17:58.352Z,14.38
2022-09-10T03:18:31.741Z,14.38
2022-09-10T03:19:05.577Z,14.38
2022-09-10T03:19:40.001Z,14.38
2022-09-10T03:20:12.613Z,14.38
2022-09-10T03:20:46.082Z,14.44
2022-09-10T03:21:20.589Z,14.44
2022-09-10T03:21:53.085Z,14.44
2022-09-10T03:22:26.673Z,14.44
2022-09-10T03:22:59.475Z,14.44
2022-09-10T03:23:32.023Z,14.44
2022-09-10T03:24:05.666Z,14.44
2022-09-10T03:24:38.379Z,14.44
2022-09-10T03:25:11.690Z,14.44
2022-09-10T03:25:46.908Z,14.44
2022-09-10T03:26:26.265Z,14.44
2022-09-10T03:26:59.822Z,14.44
2022-09-10T03:27:35.144Z,14.44
2022-09-10T03:28:10.775Z,14.44
2022-09-10T03:28:44.963Z,14.44
2022-09-10T03:29:22.940Z,14.44
2022-09-10T03:29:56.369Z,14.44
2022-09-10T03:30:29.307Z,14.44
2022-09-10T03:31:01.814Z,14.44
2022-09-10T03:31:39.599Z,14.44
2022-09-10T03:32:12.307Z,14.44
2022-09-10T03:32:45.219Z,14.50
2022-09-10T03:33:21.207Z,14.44
2022-09-10T03:33:54.920Z,14.50
2022-09-10T03:34:27.381Z,14.50
2022-09-10T03:35:00.035Z,14.50
2022-09-10T03:35:33.518Z,14.50
2022-09-10T03:36:07.016Z,14.50
2022-09-10T03:36:40.810Z,14.50
2022-09-10T03:37:21.139Z,14.50
2022-09-10T03:37:53.603Z,14.50
2022-09-10T03:38:28.454Z,14.50
2022-09-10T03:39:03.769Z,14.50
2022-09-10T03:39:40.353Z,14.50
2022-09-10T03:40:13.101Z,14.50
2022-09-10T03:40:45.596Z,14.56
2022-09-10T03:41:19.013Z,14.56
2022-09-10T03:41:52.739Z,14.56
2022-09-10T03:42:25.521Z,14.56
2022-09-10T03:42:59.327Z,14.56
2022-09-10T03:43:31.950Z,14.56
2022-09-10T03:44:05.559Z,14.56
2022-09-10T03:44:40.532Z,14.56
2022-09-10T03:45:13.846Z,14.56
2022-09-10T03:45:49.135Z,14.56
2022-09-10T03:46:26.510Z,14.56
2022-09-10T03:47:01.647Z,14.56
2022-09-10T03:47:37.598Z,14.56
2022-09-10T03:48:10.296Z,14.56
2022-09-10T03:49:04.326Z,14.56
2022-09-10T03:49:39.981Z,14.56
2022-09-10T03:50:13.052Z,14.56
2022-09-10T03:50:47.471Z,14.56
2022-09-10T03:51:21.573Z,14.56
2022-09-10T03:51:54.431Z,14.56
2022-09-10T03:52:27.125Z,14.56
2022-09-10T03:53:03.137Z,14.63
2022-09-10T03:53:35.854Z,14.56
2022-09-10T03:54:09.563Z,14.56
2022-09-10T03:54:43.184Z,14.63
2022-09-10T03:55:15.851Z,14.63
2022-09-10T03:55:52.193Z,14.63
2022-09-10T03:56:24.777Z,14.63
2022-09-10T03:56:58.941Z,14.63
2022-09-10T03:57:31.660Z,14.63
2022-09-10T03:58:06.134Z,14.63
2022-09-10T03:58:40.004Z,14.63
2022-09-10T03:59:14.841Z,14.63
2022-09-10T03:59:49.831Z,14.63
2022-09-10T04:00:22.423Z,14.63
2022-09-10T04:00:56.000Z,14.63
2022-09-10T04:01:28.686Z,14.63
2022-09-10T04:02:01.532Z,14.63
2022-09-10T04:02:35.371Z,14.63
2022-09-10T04:03:07.936Z,14.63
2022-09-10T04:03:41.090Z,14.63
2022-09-10T04:04:15.220Z,14.63
2022-09-10T04:04:47.746Z,14.63
2022-09-10T04:05:20.929Z,14.63
2022-09-10T04:05:54.792Z,14.63
2022-09-10T04:06:28.321Z,14.63
2022-09-10T04:07:01.702Z,14.63
2022-09-10T04:07:34.254Z,14.63
2022-09-10T04:08:09.872Z,14.63
2022-09-10T04:08:43.582Z,14.63
2022-09-10T04:09:18.500Z,14.63
2022-09-10T04:09:51.913Z,14.63
2022-09-10T04:10:24.628Z,14.63
2022-09-10T04:11:03.222Z,14.56
2022-09-10T04:11:35.928Z,14.56
2022-09-10T04:12:08.949Z,14.63
2022-09-10T04:12:42.621Z,14.63
2022-09-10T04:13:15.204Z,14.63
2022-09-10T04:13:48.501Z,14.63
2022-09-10T04:14:21.167Z,14.63
2022-09-10T04:14:56.110Z,14.56
2022-09-10T04:15:28.626Z,14.56
2022-09-10T04:16:01.754Z,14.63
2022-09-10T04:16:35.925Z,14.63
2022-09-10T04:17:08.912Z,14.63
2022-09-10T04:17:41.441Z,14.63
2022-09-10T04:18:14.839Z,14.63
2022-09-10T04:18:48.303Z,14.63
2022-09-10T04:19:21.942Z,14.63
2022-09-10T04:19:55.782Z,14.63
2022-09-10T04:20:29.606Z,14.63
2022-09-10T04:21:09.882Z,14.63
2022-09-10T04:21:43.777Z,14.63
2022-09-10T04:22:17.842Z,14.63
2022-09-10T04:22:51.437Z,14.63
2022-09-10T04:23:23.963Z,14.63
2022-09-10T04:23:59.265Z,14.63
2022-09-10T04:24:31.778Z,14.63
2022-09-10T04:25:04.744Z,14.63
2022-09-10T04:25:37.158Z,14.63
2022-09-10T04:26:14.676Z,14.63
2022-09-10T04:26:50.221Z,14.63
2022-09-10T04:27:23.802Z,14.63
2022-09-10T04:27:57.983Z,14.63
2022-09-10T04:28:31.347Z,14.63
2022-09-10T04:29:04.116Z,14.63
2022-09-10T04:29:38.110Z,14.63
2022-09-10T04:30:13.299Z,14.63
2022-09-10T04:30:47.100Z,14.63
2022-09-10T04:31:21.799Z,14.63
2022-09-10T04:31:56.025Z,14.63
2022-09-10T04:32:29.284Z,14.63
2022-09-10T04:33:02.800Z,14.63
2022-09-10T04:33:38.203Z,14.63
2022-09-10T04:34:11.498Z,14.63
2022-09-10T04:34:45.926Z,14.63
2022-09-10T04:35:20.365Z,14.69
2022-09-10T04:35:53.264Z,14.69
2022-09-10T04:36:27.107Z,14.69
2022-09-10T04:36:59.771Z,14.69
2022-09-10T04:37:33.510Z,14.69
2022-09-10T04:38:08.023Z,14.69
2022-09-10T04:38:43.463Z,14.69
2022-09-10T04:39:19.146Z,14.69
2022-09-10T04:39:55.075Z,14.69
2022-09-10T04:40:27.906Z,14.69
2022-09-10T04:41:01.565Z,14.69
2022-09-10T04:41:35.091Z,14.69
2022-09-10T04:42:08.391Z,14.69
2022-09-10T04:42:41.563Z,14.69
2022-09-10T04:43:15.180Z,14.69
2022-09-10T04:43:48.396Z,14.69
2022-09-10T04:44:22.392Z,14.69
2022-09-10T04:44:55.194Z,14.69
2022-09-10T04:45:29.613Z,14.69
2022-09-10T04:46:03.207Z,14.69
2022-09-10T04:46:36.976Z,14.69
2022-09-10T04:47:12.906Z,14.69
2022-09-10T04:47:47.549Z,14.69
2022-09-10T04:48:20.024Z,14.69
2022-09-10T04:48:53.718Z,14.75
2022-09-10T04:49:29.700Z,14.75
2022-09-10T04:50:03.552Z,14.69
2022-09-10T04:50:36.004Z,14.69
2022-09-10T04:51:16.471Z,14.69
2022-09-10T04:51:51.580Z,14.69
2022-09-10T04:52:24.698Z,14.69
2022-09-10T04:52:59.286Z,14.69
2022-09-10T04:53:32.370Z,14.75
2022-09-10T04:54:05.868Z,14.75
2022-09-10T04:54:42.824Z,14.75
2022-09-10T04:55:15.629Z,14.75
2022-09-10T04:55:49.360Z,14.69
2022-09-10T04:56:23.171Z,14.75
2022-09-10T04:56:56.248Z,14.75
2022-09-10T04:57:28.916Z,14.75
2022-09-10T04:58:02.456Z,14.75
2022-09-10T04:58:38.633Z,14.69
2022-09-10T04:59:11.989Z,14.75
2022-09-10T04:59:45.907Z,14.69
2022-09-10T05:00:19.909Z,14.75
2022-09-10T05:00:56.038Z,14.69
2022-09-10T05:01:31.246Z,14.75
2022-09-10T05:02:04.142Z,14.75
2022-09-10T05:02:37.368Z,14.69
2022-09-10T05:03:10.822Z,14.75
2022-09-10T05:03:44.076Z,14.75
2022-09-10T05:04:17.422Z,14.75
2022-09-10T05:04:51.088Z,14.75
2022-09-10T05:05:23.646Z,14.75
2022-09-10T05:05:56.345Z,14.75
2022-09-10T05:06:30.024Z,14.75
2022-09-10T05:07:02.648Z,14.75
2022-09-10T05:07:35.228Z,14.75
2022-09-10T05:08:09.436Z,14.75
2022-09-10T05:08:41.922Z,14.75
2022-09-10T05:09:15.752Z,14.75
2022-09-10T05:09:49.343Z,14.75
2022-09-10T05:10:23.896Z,14.75
2022-09-10T05:10:56.824Z,14.75
2022-09-10T05:11:31.092Z,14.75
2022-09-10T05:12:03.898Z,14.75
2022-09-10T05:12:37.033Z,14.75
2022-09-10T05:13:10.973Z,14.75
2022-09-10T05:13:43.555Z,14.75
2022-09-10T05:14:17.387Z,14.75
2022-09-10T05:14:50.997Z,14.75
2022-09-10T05:15:23.449Z,14.75
2022-09-10T05:15:58.710Z,14.75
2022-09-10T05:16:32.662Z,14.75
2022-09-10T05:17:05.593Z,14.75
2022-09-10T05:17:39.794Z,14.75
2022-09-10T05:18:14.162Z,14.75
2022-09-10T05:18:46.742Z,14.75
2022-09-10T05:19:20.458Z,14.75
2022-09-10T05:19:58.896Z,14.75
2022-09-10T05:20:31.747Z,14.75
2022-09-10T05:21:05.296Z,14.75
2022-09-10T05:21:40.670Z,14.75
2022-09-10T05:22:13.115Z,14.69
2022-09-10T05:22:46.586Z,14.69
2022-09-10T05:23:19.908Z,14.69
2022-09-10T05:23:52.516Z,14.69
2022-09-10T05:24:27.393Z,14.69
2022-09-10T05:24:59.939Z,14.63
2022-09-10T05:25:34.525Z,14.63
2022-09-10T05:26:08.443Z,14.63
2022-09-10T05:26:41.630Z,14.63
2022-09-10T05:27:16.136Z,14.63
2022-09-10T05:27:51.351Z,14.63
2022-09-10T05:28:26.151Z,14.63
2022-09-10T05:28:59.773Z,14.63
2022-09-10T05:29:33.552Z,14.63
2022-09-10T05:30:07.459Z,14.63
2022-09-10T05:30:42.292Z,14.63
2022-09-10T05:31:17.467Z,14.63
2022-09-10T05:31:50.978Z,14.56
2022-09-10T05:32:24.998Z,14.56
2022-09-10T05:32:57.945Z,14.56
2022-09-10T05:33:31.018Z,14.56
2022-09-10T05:34:05.390Z,14.50
2022-09-10T05:34:39.762Z,14.50
2022-09-10T05:35:12.397Z,14.50
2022-09-10T05:35:51.690Z,14.50
2022-09-10T05:36:24.668Z,14.50
2022-09-10T05:36:57.122Z,14.50
2022-09-10T05:37:31.937Z,14.44
2022-09-10T05:38:04.487Z,14.44
2022-09-10T05:38:41.670Z,14.44
2022-09-10T05:39:15.751Z,14.44
2022-09-10T05:39:48.687Z,14.44
2022-09-10T05:40:21.866Z,14.44
2022-09-10T05:40:57.142Z,14.44
2022-09-10T05:41:31.285Z,14.44
2022-09-10T05:42:05.927Z,14.44
2022-09-10T05:42:39.430Z,14.44
2022-09-10T05:43:12.302Z,14.38
2022-09-10T05:43:45.076Z,14.38
2022-09-10T05:44:19.390Z,14.38
2022-09-10T05:44:53.299Z,14.38
2022-09-10T05:45:25.858Z,14.38
2022-09-10T05:46:00.724Z,14.38
2022-09-10T05:46:34.871Z,14.38
2022-09-10T05:47:14.796Z,14.38
2022-09-10T05:47:48.531Z,14.38
2022-09-10T05:48:24.874Z,14.38
2022-09-10T05:48:58.024Z,14.38
2022-09-10T05:49:34.651Z,14.38
2022-09-10T05:50:08.686Z,14.31
2022-09-10T05:50:45.965Z,14.31
2022-09-10T05:51:19.794Z,14.31
2022-09-10T05:51:54.987Z,14.31
2022-09-10T05:52:27.768Z,14.31
2022-09-10T05:53:05.662Z,14.31
2022-09-10T05:53:38.323Z,14.31
2022-09-10T05:54:12.811Z,14.31
2022-09-10T05:54:47.140Z,14.31
2022-09-10T05:55:20.131Z,14.31
2022-09-10T05:55:54.270Z,14.31
2022-09-10T05:56:28.354Z,14.31
2022-09-10T05:57:01.646Z,14.31
2022-09-10T05:57:35.481Z,14.31
2022-09-10T05:58:11.606Z,14.31
2022-09-10T05:58:45.688Z,14.31
2022-09-10T05:59:22.416Z,14.38
2022-09-10T05:59:59.888Z,14.38
2022-09-10T06:00:32.562Z,14.38
2022-09-10T06:01:11.068Z,14.38
2022-09-10T06:01:46.412Z,14.38
2022-09-10T06:02:23.944Z,14.38
2022-09-10T06:02:59.593Z,14.38
2022-09-10T06:03:38.006Z,14.44
2022-09-10T06:04:11.210Z,14.44
2022-09-10T06:04:45.182Z,14.44
2022-09-10T06:05:22.794Z,14.44
2022-09-10T06:05:55.742Z,14.44
2022-09-10T06:06:34.963Z,14.50
2022-09-10T06:07:14.793Z,14.50
2022-09-10T06:07:48.608Z,14.56
2022-09-10T06:08:22.771Z,14.56
2022-09-10T06:08:56.488Z,14.56
2022-09-10T06:09:55.607Z,14.63
2022-09-10T06:10:41.861Z,14.63
2022-09-10T06:11:15.576Z,14.63
2022-09-10T06:11:54.236Z,14.63
2022-09-10T06:12:28.028Z,14.63
2022-09-10T06:13:01.483Z,14.56
2022-09-10T06:13:35.297Z,14.56
2022-09-10T06:14:07.922Z,14.56
2022-09-10T06:14:41.624Z,14.56
2022-09-10T06:15:14.870Z,14.56
2022-09-10T06:15:47.365Z,14.56
2022-09-10T06:16:21.752Z,14.56
2022-09-10T06:16:55.818Z,14.56
2022-09-10T06:17:30.131Z,14.56
2022-09-10T06:18:03.906Z,14.56
2022-09-10T06:18:40.356Z,14.56
2022-09-10T06:19:15.414Z,14.63
2022-09-10T06:19:48.109Z,14.63
2022-09-10T06:20:23.714Z,14.63
2022-09-10T06:21:05.506Z,14.63
2022-09-10T06:21:38.129Z,14.69
2022-09-10T06:22:11.061Z,14.69
2022-09-10T06:22:47.097Z,14.69
2022-09-10T06:23:19.574Z,14.75
2022-09-10T06:23:53.930Z,14.75
2022-09-10T06:24:28.742Z,14.81
2022-09-10T06:25:02.841Z,14.81
2022-09-10T06:25:35.396Z,14.88
2022-09-10T06:26:11.351Z,14.94
2022-09-10T06:26:44.026Z,14.94
2022-09-10T06:27:18.929Z,15.00
2022-09-10T06:27:52.721Z,15.06
2022-09-10T06:28:27.638Z,15.06
2022-09-10T06:29:00.668Z,15.13
2022-09-10T06:29:36.528Z,15.13
2022-09-10T06:30:10.299Z,15.19
2022-09-10T06:30:46.067Z,15.19
2022-09-10T06:31:20.114Z,15.19
2022-09-10T06:31:56.263Z,15.19
2022-09-10T06:32:29.718Z,15.19
2022-09-10T06:33:03.150Z,15.19
2022-09-10T06:33:35.951Z,15.19
2022-09-10T06:34:09.589Z,15.19
2022-09-10T06:34:45.814Z,15.13
2022-09-10T06:35:18.628Z,15.13
2022-09-10T06:35:55.135Z,15.13
2022-09-10T06:36:29.824Z,15.13
2022-09-10T06:37:04.191Z,15.13
2022-09-10T06:37:39.874Z,15.13
2022-09-10T06:38:15.607Z,15.13
2022-09-10T06:38:49.571Z,15.13
2022-09-10T06:39:22.451Z,15.19
2022-09-10T06:40:02.109Z,15.19
2022-09-10T06:40:36.292Z,15.19
2022-09-10T06:41:13.863Z,15.25
2022-09-10T06:41:53.628Z,15.25
2022-09-10T06:42:57.071Z,15.25
2022-09-10T06:43:48.034Z,15.25
2022-09-10T06:44:35.326Z,15.31
2022-09-10T06:45:18.443Z,15.31
2022-09-10T06:46:01.525Z,15.38
2022-09-10T06:48:37.261Z,15.50
2022-09-10T06:49:00.797Z,15.50
2022-09-10T06:49:37.925Z,15.50
2022-09-10T06:50:11.059Z,15.50
2022-09-10T06:50:53.359Z,15.50
2022-09-10T06:51:27.001Z,15.56
2022-09-10T06:52:07.616Z,15.56
2022-09-10T06:52:41.235Z,15.56
2022-09-10T06:53:16.727Z,15.63
2022-09-10T06:53:49.554Z,15.63
2022-09-10T06:54:26.450Z,15.69
2022-09-10T06:55:02.559Z,15.69
2022-09-10T06:55:40.390Z,15.75
2022-09-10T06:56:15.164Z,15.75
2022-09-10T06:56:49.530Z,15.75
2022-09-10T06:57:26.972Z,15.75
2022-09-10T06:58:00.229Z,15.75
2022-09-10T06:58:35.691Z,15.75
2022-09-10T06:59:13.616Z,15.75
2022-09-10T06:59:49.852Z,15.75
2022-09-10T07:00:22.597Z,15.81
2022-09-10T07:01:06.278Z,15.81
2022-09-10T07:01:38.908Z,15.81
2022-09-10T07:02:12.985Z,15.88
2022-09-10T07:02:50.637Z,15.88
2022-09-10T07:03:24.069Z,15.94
2022-09-10T07:03:58.522Z,15.94
2022-09-10T07:04:33.283Z,16.00
2022-09-10T07:05:10.406Z,16.00
2022-09-10T07:05:47.994Z,16.00
2022-09-10T07:06:23.169Z,16.00
2022-09-10T07:07:02.299Z,16.06
2022-09-10T07:07:34.898Z,16.06
2022-09-10T07:08:12.282Z,16.06
2022-09-10T07:08:45.283Z,16.06
2022-09-10T07:09:19.687Z,16.06
2022-09-10T07:10:01.468Z,16.00
2022-09-10T07:10:34.509Z,16.06
2022-09-10T07:11:12.860Z,16.06
2022-09-10T07:11:45.780Z,16.06
2022-09-10T07:12:25.047Z,16.06
2022-09-10T07:13:01.071Z,16.06
2022-09-10T07:13:34.000Z,16.13
2022-09-10T07:14:08.103Z,16.13
2022-09-10T07:14:42.090Z,16.13
2022-09-10T07:15:17.009Z,16.13
2022-09-10T07:15:50.979Z,16.19
2022-09-10T07:16:25.828Z,16.19
2022-09-10T07:16:58.659Z,16.19
2022-09-10T07:17:37.798Z,16.25
2022-09-10T07:18:16.610Z,16.25
2022-09-10T07:18:51.139Z,16.25
2022-09-10T07:19:26.591Z,16.25
2022-09-10T07:19:59.308Z,16.25
2022-09-10T07:20:44.384Z,16.31
2022-09-10T07:21:19.334Z,16.31
2022-09-10T07:21:52.774Z,16.31
2022-09-10T07:22:25.326Z,16.31
2022-09-10T07:22:59.655Z,16.38
2022-09-10T07:23:34.468Z,16.38
2022-09-10T07:24:07.573Z,16.44
2022-09-10T07:24:42.036Z,16.50
2022-09-10T07:25:16.443Z,16.56
2022-09-10T07:26:11.436Z,16.69
2022-09-10T07:26:49.634Z,16.75
2022-09-10T07:27:22.396Z,16.75
2022-09-10T07:27:56.087Z,16.81
2022-09-10T07:28:30.150Z,16.81
2022-09-10T07:29:35.250Z,16.88
2022-09-10T07:30:28.749Z,16.94
2022-09-10T07:31:29.704Z,17.06
2022-09-10T07:32:05.408Z,17.13
2022-09-10T07:32:40.869Z,17.19
2022-09-10T07:33:20.573Z,17.25
2022-09-10T07:33:54.741Z,17.31
2022-09-10T07:34:30.173Z,17.38
2022-09-10T07:35:07.205Z,17.44
2022-09-10T07:35:40.184Z,17.50
2022-09-10T07:36:15.658Z,17.56
2022-09-10T07:36:49.661Z,17.69
2022-09-10T07:37:23.810Z,17.75
2022-09-10T07:38:04.610Z,17.81
2022-09-10T07:38:37.408Z,17.88
2022-09-10T07:39:11.483Z,17.94
2022-09-10T07:39:46.397Z,18.06
2022-09-10T07:40:20.002Z,18.13
2022-09-10T07:40:53.808Z,18.13
2022-09-10T07:41:30.122Z,18.19